Time;durP1;ratioP1;P1;durP2;ratioP2;P2;SDS_P1;SDS_P2;PMS_P1;PMS_P2;Temp;Humidity;BMP_temperature;BMP_pressure;BME280_temperature;BME280_humidity;BME280_pressure;Samples;Min_cycle;Max_cycle;Signal;HPM_P1;HPM_P2
2023/09/18 00:00:51;;;;;;;9.10;5.50;;;;;;;17.73;39.67;101295.90;108149;1287;21987;-59
2023/09/18 00:03:20;;;;;;;10.10;5.60;;;;;;;17.79;39.57;101292.20;108118;1283;22036;-58
2023/09/18 00:05:47;;;;;;;10.10;5.50;;;;;;;17.84;39.58;101288.33;108126;1285;22174;-65
2023/09/18 00:08:14;;;;;;;9.40;5.40;;;;;;;17.90;39.37;101294.90;108133;1279;21987;-65
2023/09/18 00:10:39;;;;;;;7.40;5.80;;;;;;;17.95;39.51;101295.12;108093;1283;22370;-65
2023/09/18 00:13:05;;;;;;;9.50;6.10;;;;;;;17.96;39.47;101290.46;107656;1285;22102;-64
2023/09/18 00:15:31;;;;;;;10.50;5.80;;;;;;;17.93;39.52;101296.42;108099;1277;21992;-64
2023/09/18 00:17:56;;;;;;;9.60;5.80;;;;;;;17.86;39.51;101296.27;108093;1288;22010;-64
2023/09/18 00:20:26;;;;;;;9.10;6.10;;;;;;;17.82;39.64;101297.78;108085;1287;22012;-64
2023/09/18 00:22:55;;;;;;;9.90;5.50;;;;;;;17.80;39.68;101295.35;108094;1283;21995;-65
2023/09/18 00:25:24;;;;;;;9.30;6.20;;;;;;;17.74;39.58;101293.20;108096;1283;21989;-58
2023/09/18 00:27:51;;;;;;;10.20;5.60;;;;;;;17.68;39.60;101292.30;108149;1286;21997;-58
2023/09/18 00:30:17;;;;;;;7.70;5.20;;;;;;;17.67;39.68;101296.59;108091;1277;21994;-58
2023/09/18 00:32:43;;;;;;;10.00;5.60;;;;;;;17.68;39.79;101296.57;108077;1288;21993;-65
2023/09/18 00:35:08;;;;;;;8.60;5.80;;;;;;;17.67;39.98;101295.70;108101;1287;21993;-64
2023/09/18 00:37:34;;;;;;;11.10;5.70;;;;;;;17.66;39.90;101292.88;108068;1288;21992;-58
2023/09/18 00:40:01;;;;;;;10.50;5.90;;;;;;;17.67;39.87;101294.30;108119;1283;21994;-58
2023/09/18 00:42:26;;;;;;;12.40;6.40;;;;;;;17.67;39.88;101287.90;108145;1280;22001;-64
2023/09/18 00:44:52;;;;;;;8.70;5.10;;;;;;;17.67;39.93;101290.02;108133;1288;22023;-57
2023/09/18 00:47:17;;;;;;;10.60;6.20;;;;;;;17.69;39.92;101288.36;108134;1287;22026;-64
2023/09/18 00:49:45;;;;;;;9.20;5.90;;;;;;;17.68;39.80;101290.70;107878;1287;21990;-64
2023/09/18 00:52:11;;;;;;;8.40;5.40;;;;;;;17.67;39.75;101289.86;108176;1280;22069;-58
2023/09/18 00:54:37;;;;;;;10.40;6.60;;;;;;;17.65;39.61;101286.91;108099;1277;21998;-58
2023/09/18 00:57:03;;;;;;;10.50;6.30;;;;;;;17.63;39.61;101283.41;108123;1283;22049;-63
2023/09/18 00:59:28;;;;;;;11.30;6.10;;;;;;;17.62;39.55;101285.20;108174;1288;22007;-65
2023/09/18 01:01:54;;;;;;;12.20;5.80;;;;;;;17.62;39.67;101286.79;108004;1282;21998;-58
2023/09/18 01:04:20;;;;;;;10.00;6.40;;;;;;;17.62;39.69;101284.14;107897;1283;22024;-58
2023/09/18 01:06:47;;;;;;;9.70;6.20;;;;;;;17.62;39.62;101285.55;108130;1287;22025;-65
2023/09/18 01:09:12;;;;;;;10.80;6.20;;;;;;;17.61;39.67;101283.27;107936;1279;21977;-60
2023/09/18 01:11:47;;;;;;;13.40;5.90;;;;;;;17.60;39.63;101282.06;108087;1287;21997;-65
2023/09/18 01:14:23;;;;;;;12.80;6.40;;;;;;;17.59;39.63;101282.10;108128;1283;21998;-58
2023/09/18 01:16:59;;;;;;;12.10;5.90;;;;;;;17.58;39.70;101284.42;108128;1283;22003;-65
2023/09/18 01:19:41;;;;;;;10.10;5.90;;;;;;;17.57;39.77;101282.14;108134;1288;22027;-58
2023/09/18 01:22:07;;;;;;;10.20;6.20;;;;;;;17.56;39.70;101280.38;108104;1283;22003;-65
2023/09/18 01:24:33;;;;;;;9.30;5.90;;;;;;;17.56;39.72;101280.40;108105;1277;21996;-65
2023/09/18 01:26:59;;;;;;;10.60;6.30;;;;;;;17.56;39.69;101280.92;108123;1280;21998;-57
2023/09/18 01:29:25;;;;;;;9.00;6.10;;;;;;;17.56;39.53;101283.24;108080;1288;21995;-58
2023/09/18 01:31:51;;;;;;;9.40;6.00;;;;;;;17.55;39.49;101284.51;108075;1277;22000;-58
2023/09/18 01:34:21;;;;;;;10.90;6.40;;;;;;;17.56;39.60;101287.15;108078;1283;21993;-65
2023/09/18 01:36:47;;;;;;;10.00;6.00;;;;;;;17.56;39.71;101286.24;108104;1283;22784;-65
2023/09/18 01:39:13;;;;;;;9.10;6.60;;;;;;;17.57;39.70;101282.50;107753;1286;22051;-65
2023/09/18 01:41:38;;;;;;;9.00;5.90;;;;;;;17.57;39.72;101282.85;107845;1283;22024;-64
2023/09/18 01:44:05;;;;;;;10.10;5.70;;;;;;;17.57;39.72;101283.58;107849;1288;22015;-64
2023/09/18 01:46:32;;;;;;;13.20;6.80;;;;;;;17.57;39.68;101279.67;108146;1287;21999;-58
2023/09/18 01:48:59;;;;;;;8.40;5.10;;;;;;;17.56;39.83;101284.83;108111;1286;21990;-64
2023/09/18 01:51:24;;;;;;;10.80;6.80;;;;;;;17.57;39.79;101284.99;108155;1283;21993;-64
2023/09/18 01:53:51;;;;;;;11.40;6.10;;;;;;;17.57;39.84;101288.01;108138;1282;21993;-64
2023/09/18 01:56:17;;;;;;;10.00;6.10;;;;;;;17.55;39.92;101291.77;108156;1281;21956;-66
2023/09/18 01:58:42;;;;;;;11.00;6.40;;;;;;;17.53;39.80;101293.06;108103;1288;22001;-59
2023/09/18 02:01:08;;;;;;;10.10;5.60;;;;;;;17.51;39.73;101297.90;108102;1287;21987;-59
2023/09/18 02:03:33;;;;;;;9.90;6.20;;;;;;;17.49;39.70;101295.84;108053;1288;22008;-59
2023/09/18 02:05:59;;;;;;;10.60;6.50;;;;;;;17.46;39.67;101298.57;108094;1287;21996;-65
2023/09/18 02:08:24;;;;;;;10.30;6.50;;;;;;;17.45;39.69;101301.10;108071;1283;21987;-59
2023/09/18 02:10:50;;;;;;;12.30;7.00;;;;;;;17.43;39.73;101301.50;108101;1283;21986;-65
2023/09/18 02:13:17;;;;;;;9.50;6.50;;;;;;;17.41;39.78;101301.21;108066;1288;21992;-59
2023/09/18 02:15:43;;;;;;;9.90;6.00;;;;;;;17.38;39.68;101305.71;108081;1283;21990;-66
2023/09/18 02:18:09;;;;;;;13.40;7.20;;;;;;;17.35;39.76;101304.36;108095;1280;22000;-59
2023/09/18 02:20:41;;;;;;;12.60;7.00;;;;;;;17.34;39.70;101303.15;108141;1280;22008;-65
2023/09/18 02:23:07;;;;;;;10.40;6.90;;;;;;;17.32;39.81;101306.23;108088;1278;21995;-66
2023/09/18 02:25:32;;;;;;;11.90;5.90;;;;;;;17.31;39.79;101303.60;108084;1282;22001;-59
2023/09/18 02:27:58;;;;;;;11.20;6.60;;;;;;;17.31;39.85;101308.55;108152;1283;22099;-65
2023/09/18 02:30:24;;;;;;;9.20;5.90;;;;;;;17.31;39.81;101316.00;108086;1286;22001;-66
2023/09/18 02:32:49;;;;;;;15.00;6.90;;;;;;;17.30;39.88;101317.08;108153;1283;21994;-67
2023/09/18 02:35:15;;;;;;;11.10;6.50;;;;;;;17.31;39.89;101318.83;107898;1286;21986;-59
2023/09/18 02:37:40;;;;;;;14.30;6.90;;;;;;;17.31;39.84;101314.04;108128;1279;21990;-59
2023/09/18 02:40:07;;;;;;;12.60;6.90;;;;;;;17.31;39.92;101312.09;108130;1283;21990;-66
2023/09/18 02:42:33;;;;;;;21.80;7.00;;;;;;;17.31;39.92;101310.69;108167;1288;22025;-58
2023/09/18 02:44:58;;;;;;;11.70;6.40;;;;;;;17.28;39.87;101307.73;108097;1283;22024;-59
2023/09/18 02:47:24;;;;;;;16.50;7.30;;;;;;;17.25;39.79;101310.30;108094;1283;21997;-65
2023/09/18 02:49:50;;;;;;;13.00;7.50;;;;;;;17.22;39.85;101310.17;108115;1287;21982;-64
2023/09/18 02:52:15;;;;;;;16.40;7.20;;;;;;;17.19;39.87;101310.29;108142;1287;21996;-65
2023/09/18 02:54:41;;;;;;;13.20;6.80;;;;;;;17.16;39.79;101305.37;108096;1287;22002;-63
2023/09/18 02:57:06;;;;;;;10.10;6.80;;;;;;;17.15;39.86;101304.86;108108;1283;21989;-58
2023/09/18 02:59:32;;;;;;;14.00;6.70;;;;;;;17.15;39.94;101302.73;108088;1288;22033;-59
2023/09/18 03:01:58;;;;;;;49.50;36.50;;;;;;;17.16;40.00;101302.37;108146;1288;21997;-61
2023/09/18 03:04:23;;;;;;;43.80;36.10;;;;;;;17.15;39.99;101300.80;107890;1288;21990;-59
2023/09/18 03:06:49;;;;;;;24.60;13.30;;;;;;;17.13;39.96;101301.19;108009;1283;21992;-64
2023/09/18 03:09:16;;;;;;;13.20;8.90;;;;;;;17.11;39.88;101301.40;108023;1277;21987;-65
2023/09/18 03:11:43;;;;;;;16.10;8.60;;;;;;;17.08;39.84;101305.56;108084;1277;23644;-65
2023/09/18 03:14:09;;;;;;;15.60;8.20;;;;;;;17.05;39.94;101310.94;108125;1287;22450;-58
2023/09/18 03:16:35;;;;;;;15.80;8.80;;;;;;;17.04;39.94;101311.52;108007;1288;21990;-65
2023/09/18 03:19:00;;;;;;;13.90;9.30;;;;;;;17.02;39.98;101314.77;104407;1288;1002947;-59
2023/09/18 03:21:26;;;;;;;17.80;9.90;;;;;;;17.00;40.02;101316.56;108143;1286;22002;-58
2023/09/18 03:23:51;;;;;;;22.10;9.60;;;;;;;17.00;40.07;101315.52;108063;1287;22455;-58
2023/09/18 03:26:17;;;;;;;15.00;8.80;;;;;;;17.00;40.09;101318.91;108104;1280;21997;-65
2023/09/18 03:28:42;;;;;;;14.60;8.60;;;;;;;16.99;40.22;101318.58;108062;1283;22744;-61
2023/09/18 03:31:08;;;;;;;19.90;9.20;;;;;;;16.96;40.11;101321.63;108101;1287;21989;-65
2023/09/18 03:33:33;;;;;;;20.90;9.10;;;;;;;16.93;40.14;101321.14;108079;1286;21979;-65
2023/09/18 03:35:59;;;;;;;14.60;9.40;;;;;;;16.92;40.26;101321.35;108098;1279;21991;-64
2023/09/18 03:38:25;;;;;;;17.80;8.90;;;;;;;16.91;40.23;101321.02;108087;1287;22104;-58
2023/09/18 03:40:50;;;;;;;15.60;8.30;;;;;;;16.90;40.36;101318.19;108088;1287;22060;-60
2023/09/18 03:43:16;;;;;;;15.10;8.40;;;;;;;16.90;40.47;101317.48;108112;1282;22002;-58
2023/09/18 03:45:41;;;;;;;22.60;8.80;;;;;;;16.90;40.51;101320.50;108101;1288;21997;-58
2023/09/18 03:48:07;;;;;;;17.20;9.40;;;;;;;16.93;40.67;101318.30;108102;1287;21995;-58
2023/09/18 03:50:33;;;;;;;17.10;9.60;;;;;;;16.96;40.74;101318.44;108111;1287;21995;-65
2023/09/18 03:52:58;;;;;;;15.50;9.10;;;;;;;16.98;40.63;101319.48;108080;1288;22005;-64
2023/09/18 03:55:24;;;;;;;18.90;9.70;;;;;;;16.98;40.54;101323.36;108089;1286;23625;-65
2023/09/18 03:57:51;;;;;;;18.30;9.90;;;;;;;16.98;40.45;101320.88;108118;1280;22005;-58
2023/09/18 04:00:17;;;;;;;21.00;10.20;;;;;;;16.98;40.49;101320.52;108089;1287;22027;-64
2023/09/18 04:02:43;;;;;;;17.10;9.30;;;;;;;16.99;40.57;101320.35;108081;1286;22002;-64
2023/09/18 04:05:09;;;;;;;18.70;9.90;;;;;;;17.00;40.53;101325.46;108120;1277;21975;-65
2023/09/18 04:07:35;;;;;;;16.10;9.60;;;;;;;17.01;40.58;101322.58;108109;1280;21987;-58
2023/09/18 04:10:00;;;;;;;15.20;9.70;;;;;;;17.02;40.69;101324.85;108125;1287;21990;-65
2023/09/18 04:12:26;;;;;;;15.80;9.20;;;;;;;17.05;40.67;101324.95;108108;1288;21996;-64
2023/09/18 04:14:52;;;;;;;18.00;9.50;;;;;;;17.08;40.75;101323.45;108153;1286;21990;-65
2023/09/18 04:17:17;;;;;;;19.70;9.60;;;;;;;17.12;40.79;101326.39;108084;1287;21992;-64
2023/09/18 04:19:44;;;;;;;19.30;8.70;;;;;;;17.17;40.82;101332.15;108108;1280;21987;-59
2023/09/18 04:22:09;;;;;;;16.90;8.20;;;;;;;17.21;40.90;101332.20;108093;1288;21990;-64
2023/09/18 04:24:35;;;;;;;19.90;8.90;;;;;;;17.28;41.14;101334.17;108124;1283;21984;-65
2023/09/18 04:27:01;;;;;;;14.60;8.40;;;;;;;17.35;41.22;101332.91;108159;1277;21991;-58
2023/09/18 04:29:26;;;;;;;17.90;9.10;;;;;;;17.43;41.20;101333.95;108082;1283;21994;-58
2023/09/18 04:31:53;;;;;;;15.50;8.60;;;;;;;17.49;41.12;101332.73;108121;1288;21990;-66
2023/09/18 04:34:20;;;;;;;15.70;8.20;;;;;;;17.56;41.13;101331.68;107390;1283;1002885;-66
2023/09/18 04:36:47;;;;;;;15.00;8.80;;;;;;;17.64;41.23;101332.00;108204;1283;22035;-68
2023/09/18 04:39:14;;;;;;;20.00;8.10;;;;;;;17.74;41.24;101331.38;108188;1288;21990;-57
2023/09/18 04:41:39;;;;;;;22.50;8.50;;;;;;;17.83;41.25;101330.78;108191;1277;21990;-64
2023/09/18 04:44:05;;;;;;;13.80;7.90;;;;;;;17.92;41.20;101329.65;108100;1283;22052;-57
2023/09/18 04:46:30;;;;;;;16.90;8.20;;;;;;;18.01;41.25;101330.86;108087;1288;21990;-60
2023/09/18 04:48:56;;;;;;;16.90;8.00;;;;;;;18.10;41.19;101328.98;108147;1282;21992;-57
2023/09/18 04:51:22;;;;;;;12.30;7.80;;;;;;;18.21;41.24;101323.54;108114;1288;21990;-57
2023/09/18 04:53:47;;;;;;;12.90;7.50;;;;;;;18.31;41.36;101317.55;108130;1288;21990;-65
2023/09/18 04:56:13;;;;;;;12.40;7.70;;;;;;;18.44;41.46;101320.36;108099;1277;21989;-57
2023/09/18 04:58:38;;;;;;;12.90;7.80;;;;;;;18.58;41.52;101322.07;108116;1283;24329;-60
2023/09/18 05:01:08;;;;;;;16.10;7.80;;;;;;;18.70;41.74;101325.08;108084;1288;21992;-65
2023/09/18 05:03:34;;;;;;;22.10;9.10;;;;;;;18.84;41.75;101325.89;108120;1286;21992;-58
2023/09/18 05:05:59;;;;;;;9.20;7.20;;;;;;;18.98;41.78;101325.30;109013;1283;22024;-67
2023/09/18 05:08:25;;;;;;;18.10;8.20;;;;;;;19.13;41.95;101329.10;108106;1288;21956;-65
2023/09/18 05:10:51;;;;;;;14.40;7.80;;;;;;;19.28;41.90;101325.55;108096;1288;21990;-58
2023/09/18 05:13:16;;;;;;;13.90;6.80;;;;;;;19.45;41.87;101323.94;108075;1279;21989;-65
2023/09/18 05:15:42;;;;;;;11.80;7.00;;;;;;;19.61;41.87;101324.98;108095;1284;21997;-57
2023/09/18 05:18:08;;;;;;;15.90;7.20;;;;;;;19.79;41.91;101325.58;108141;1283;22030;-65
2023/09/18 05:20:34;;;;;;;15.80;7.60;;;;;;;19.98;41.91;101328.67;108124;1277;22018;-58
2023/09/18 05:23:01;;;;;;;20.10;7.40;;;;;;;20.17;41.88;101329.93;108103;1283;21988;-59
2023/09/18 05:25:27;;;;;;;18.10;8.10;;;;;;;20.39;41.93;101325.36;108117;1283;21987;-58
2023/09/18 05:27:57;;;;;;;15.10;7.00;;;;;;;20.62;41.90;101321.64;108172;1283;21990;-66
2023/09/18 05:30:34;;;;;;;12.60;7.50;;;;;;;20.84;41.92;101322.93;108128;1288;21993;-64
2023/09/18 05:33:07;;;;;;;21.00;8.00;;;;;;;21.09;41.70;101323.20;108855;1288;21994;-64
2023/09/18 05:35:42;;;;;;;15.90;8.00;;;;;;;21.29;41.49;101321.10;108117;1288;22031;-58
2023/09/18 05:38:10;;;;;;;18.20;7.60;;;;;;;21.49;41.44;101320.05;108130;1279;22001;-59
2023/09/18 05:40:36;;;;;;;10.60;7.30;;;;;;;21.72;41.32;101317.11;108177;1288;21991;-59
2023/09/18 05:43:02;;;;;;;10.70;6.80;;;;;;;21.93;41.28;101315.66;108098;1283;22452;-57
2023/09/18 05:45:28;;;;;;;12.90;7.20;;;;;;;22.18;41.25;101313.13;108121;1280;22002;-64
2023/09/18 05:47:53;;;;;;;13.20;7.60;;;;;;;22.44;40.93;101313.56;107842;1287;21981;-58
2023/09/18 05:50:19;;;;;;;10.80;7.40;;;;;;;22.69;41.10;101316.44;108129;1276;21998;-64
2023/09/18 05:52:51;;;;;;;11.20;7.40;;;;;;;22.97;41.00;101313.31;108122;1288;22028;-58
2023/09/18 05:55:17;;;;;;;18.00;7.90;;;;;;;23.20;40.71;101312.18;108139;1280;22002;-63
2023/09/18 05:57:43;;;;;;;18.40;8.00;;;;;;;23.39;40.39;101308.95;108110;1288;22118;-59
2023/09/18 06:00:12;;;;;;;12.10;6.80;;;;;;;23.64;40.52;101304.20;108178;1286;22028;-58
2023/09/18 06:02:39;;;;;;;14.40;7.60;;;;;;;23.92;40.32;101308.48;108136;1287;21999;-63
2023/09/18 06:05:06;;;;;;;12.20;7.30;;;;;;;24.20;40.16;101307.20;108129;1283;21997;-64
2023/09/18 06:07:32;;;;;;;15.20;8.00;;;;;;;24.44;39.72;101307.64;108079;1280;21995;-64
2023/09/18 06:09:58;;;;;;;11.60;7.90;;;;;;;24.63;39.57;101310.20;108101;1281;21986;-58
2023/09/18 06:12:24;;;;;;;11.30;6.70;;;;;;;24.80;39.37;101306.04;108121;1283;21998;-58
2023/09/18 06:14:50;;;;;;;19.10;8.40;;;;;;;25.03;39.32;101307.23;108058;1280;21999;-58
2023/09/18 06:17:16;;;;;;;11.60;6.50;;;;;;;25.29;39.24;101304.42;108114;1287;22029;-59
2023/09/18 06:19:42;;;;;;;10.80;6.90;;;;;;;25.52;38.85;101305.27;108016;1283;22027;-58
2023/09/18 06:22:08;;;;;;;18.00;7.70;;;;;;;25.76;38.98;101306.29;108070;1288;21990;-64
2023/09/18 06:24:34;;;;;;;15.90;7.40;;;;;;;26.05;38.84;101307.23;108113;1283;21990;-59
2023/09/18 06:27:00;;;;;;;12.90;7.10;;;;;;;26.33;38.61;101304.98;108085;1283;21998;-65
2023/09/18 06:29:25;;;;;;;11.10;8.20;;;;;;;26.58;38.38;101307.10;108079;1287;23733;-59
2023/09/18 06:31:51;;;;;;;11.20;7.20;;;;;;;26.83;38.29;101308.53;108126;1288;21999;-65
2023/09/18 06:34:17;;;;;;;12.00;7.40;;;;;;;27.09;38.01;101305.41;108122;1283;22010;-59
2023/09/18 06:36:42;;;;;;;18.10;7.70;;;;;;;27.32;37.77;101305.83;108078;1280;21996;-65
2023/09/18 06:39:08;;;;;;;14.60;6.40;;;;;;;27.53;37.51;101304.74;108081;1288;21991;-59
2023/09/18 06:41:34;;;;;;;12.70;7.10;;;;;;;27.73;37.32;101300.01;108124;1280;23058;-66
2023/09/18 06:44:02;;;;;;;12.20;6.70;;;;;;;27.95;37.22;101305.11;108114;1283;22001;-65
2023/09/18 06:46:29;;;;;;;12.50;6.80;;;;;;;28.17;37.23;101304.67;108127;1283;22087;-65
2023/09/18 06:48:56;;;;;;;13.00;7.40;;;;;;;28.36;36.97;101300.39;108159;1286;21996;-65
2023/09/18 06:51:22;;;;;;;11.40;7.10;;;;;;;28.59;36.80;101301.45;108139;1283;21988;-65
2023/09/18 06:53:48;;;;;;;9.60;7.30;;;;;;;28.80;36.41;101305.85;108167;1283;22001;-64
2023/09/18 06:56:13;;;;;;;9.60;6.70;;;;;;;29.00;36.29;101302.55;108122;1283;22013;-62
2023/09/18 06:58:39;;;;;;;9.60;6.60;;;;;;;29.20;36.35;101302.30;108104;1288;22005;-65
2023/09/18 07:01:06;;;;;;;7.50;5.90;;;;;;;29.41;36.13;101308.87;108097;1283;22167;-66
2023/09/18 07:03:34;;;;;;;9.50;5.70;;;;;;;29.60;35.82;101310.61;108118;1288;21989;-65
2023/09/18 07:06:00;;;;;;;7.90;6.20;;;;;;;29.81;35.52;101308.67;108166;1281;21999;-58
2023/09/18 07:08:26;;;;;;;11.40;7.20;;;;;;;30.01;35.26;101308.70;108110;1286;21994;-59
2023/09/18 07:10:51;;;;;;;28.20;16.50;;;;;;;30.19;35.09;101305.06;108101;1288;22250;-65
2023/09/18 07:13:17;;;;;;;20.90;14.10;;;;;;;30.38;34.95;101302.53;108083;1287;22002;-60
2023/09/18 07:15:43;;;;;;;12.50;8.10;;;;;;;30.55;34.89;101304.95;108099;1288;22027;-61
2023/09/18 07:18:13;;;;;;;8.40;6.50;;;;;;;30.71;34.56;101306.48;108140;1287;21988;-61
2023/09/18 07:20:40;;;;;;;20.30;6.00;;;;;;;30.90;34.30;101306.95;108024;1288;21981;-59
2023/09/18 07:23:06;;;;;;;9.40;5.50;;;;;;;31.09;34.09;101308.05;108125;1288;21992;-64
2023/09/18 07:25:31;;;;;;;9.10;5.40;;;;;;;31.29;34.06;101314.00;108088;1287;22000;-61
2023/09/18 07:27:57;;;;;;;10.10;6.00;;;;;;;31.47;33.82;101311.20;108079;1287;21988;-65
2023/09/18 07:30:26;;;;;;;11.20;5.50;;;;;;;31.65;33.65;101310.38;108098;1288;21990;-65
2023/09/18 07:32:56;;;;;;;7.50;5.60;;;;;;;31.83;33.55;101311.51;108092;1283;22465;-65
2023/09/18 07:35:23;;;;;;;11.00;7.50;;;;;;;32.05;33.35;101311.29;108173;1283;21961;-65
2023/09/18 07:37:50;;;;;;;18.80;11.10;;;;;;;32.28;33.17;101308.89;108141;1288;21994;-65
2023/09/18 07:40:16;;;;;;;17.90;7.90;;;;;;;32.45;32.92;101310.06;108083;1288;21997;-59
2023/09/18 07:42:44;;;;;;;14.60;6.00;;;;;;;32.62;32.81;101312.19;108103;1288;21998;-65
2023/09/18 07:45:10;;;;;;;10.00;5.40;;;;;;;32.80;32.61;101310.38;108098;1284;21998;-65
2023/09/18 07:47:36;;;;;;;9.10;5.10;;;;;;;33.00;32.44;101307.65;108106;1280;21990;-66
2023/09/18 07:50:02;;;;;;;9.50;4.90;;;;;;;33.20;32.24;101304.69;108089;1283;21993;-65
2023/09/18 07:52:29;;;;;;;9.80;4.90;;;;;;;33.42;32.07;101307.73;108055;1288;21991;-66
2023/09/18 07:54:55;;;;;;;8.80;4.90;;;;;;;33.61;31.96;101305.75;108137;1280;22041;-65
2023/09/18 07:57:22;;;;;;;7.00;4.40;;;;;;;33.78;31.73;101301.38;108074;1287;21986;-60
2023/09/18 07:59:48;;;;;;;6.10;4.80;;;;;;;33.95;31.30;101301.98;108096;1288;22032;-59
2023/09/18 08:02:14;;;;;;;8.30;4.80;;;;;;;34.06;31.30;101302.15;108076;1287;22024;-65
2023/09/18 08:04:40;;;;;;;7.20;4.70;;;;;;;34.18;31.00;101303.55;108129;1288;21990;-66
2023/09/18 08:07:06;;;;;;;8.00;4.70;;;;;;;34.34;30.71;101307.39;108108;1283;21953;-65
2023/09/18 08:09:36;;;;;;;6.70;4.40;;;;;;;34.47;30.65;101304.64;108149;1288;21992;-60
2023/09/18 08:12:11;;;;;;;8.10;4.80;;;;;;;34.61;30.32;101296.08;108124;1283;22219;-66
2023/09/18 08:14:37;;;;;;;7.90;4.50;;;;;;;34.73;30.25;101298.33;108128;1288;22086;-65
2023/09/18 08:17:04;;;;;;;5.70;4.20;;;;;;;34.83;30.06;101296.91;108133;1288;21990;-60
2023/09/18 08:19:31;;;;;;;4.90;3.90;;;;;;;34.90;30.08;101294.61;108152;1288;23647;-60
2023/09/18 08:21:57;;;;;;;7.30;3.90;;;;;;;34.96;29.56;101292.67;108147;1288;22000;-65
2023/09/18 08:24:23;;;;;;;5.70;4.20;;;;;;;35.01;29.61;101288.41;108097;1277;21995;-60
2023/09/18 08:26:49;;;;;;;5.00;4.20;;;;;;;35.05;29.29;101290.95;108088;1277;21997;-66
2023/09/18 08:29:15;;;;;;;7.10;4.00;;;;;;;35.09;29.20;101290.79;108091;1288;23558;-60
2023/09/18 08:31:41;;;;;;;7.60;3.90;;;;;;;35.17;28.93;101289.16;108112;1288;22631;-64
2023/09/18 08:34:07;;;;;;;7.60;3.70;;;;;;;35.25;28.72;101284.10;109324;1283;21999;-65
2023/09/18 08:36:32;;;;;;;6.10;3.70;;;;;;;35.35;28.55;101284.13;108189;1286;21992;-60
2023/09/18 08:38:58;;;;;;;6.20;4.00;;;;;;;35.45;28.54;101282.26;108096;1288;21998;-64
2023/09/18 08:41:26;;;;;;;5.60;3.80;;;;;;;35.55;28.55;101282.10;108130;1288;22029;-61
2023/09/18 08:43:52;;;;;;;7.50;3.60;;;;;;;35.66;28.49;101282.43;108185;1281;21997;-60
2023/09/18 08:46:18;;;;;;;5.30;3.70;;;;;;;35.75;27.72;101287.13;108029;1287;22093;-60
2023/09/18 08:48:44;;;;;;;8.50;4.20;;;;;;;35.68;27.32;101283.54;107850;1288;22001;-66
2023/09/18 08:51:09;;;;;;;7.60;3.80;;;;;;;35.56;27.37;101281.29;107869;1288;21996;-66
2023/09/18 08:53:35;;;;;;;5.00;3.50;;;;;;;35.60;27.36;101285.93;108774;1288;21988;-65
2023/09/18 08:56:02;;;;;;;6.20;3.40;;;;;;;35.71;27.25;101287.54;108126;1280;21990;-65
2023/09/18 08:58:31;;;;;;;6.30;3.90;;;;;;;35.80;26.99;101281.65;109498;1283;22462;-66
2023/09/18 09:00:57;;;;;;;7.00;4.20;;;;;;;35.73;26.38;101282.65;108179;1288;22459;-66
2023/09/18 09:03:24;;;;;;;5.90;4.10;;;;;;;35.50;26.03;101280.98;108099;1277;21990;-60
2023/09/18 09:05:49;;;;;;;7.40;4.40;;;;;;;35.36;27.14;101286.94;108122;1288;21990;-60
2023/09/18 09:08:15;;;;;;;8.10;4.20;;;;;;;35.50;27.27;101284.45;107746;1288;21982;-60
2023/09/18 09:10:41;;;;;;;9.40;4.00;;;;;;;35.70;26.82;101282.14;108042;1288;21995;-60
2023/09/18 09:13:06;;;;;;;8.60;4.90;;;;;;;35.80;27.06;101282.92;108119;1283;21992;-65
2023/09/18 09:15:35;;;;;;;10.30;5.00;;;;;;;35.93;27.11;101281.00;108132;1288;22027;-60
2023/09/18 09:18:05;;;;;;;7.00;4.30;;;;;;;36.14;27.22;101280.34;107958;1286;22006;-66
2023/09/18 09:20:31;;;;;;;6.70;4.20;;;;;;;36.37;27.01;101280.20;108195;1288;22000;-67
2023/09/18 09:23:03;;;;;;;5.90;5.20;;;;;;;36.51;26.48;101277.39;108066;1287;21993;-60
2023/09/18 09:25:31;;;;;;;7.80;4.40;;;;;;;36.58;26.71;101277.27;108132;1288;22032;-60
2023/09/18 09:28:04;;;;;;;7.40;3.90;;;;;;;36.74;26.60;101274.81;108178;1287;21990;-60
2023/09/18 09:30:31;;;;;;;7.30;4.10;;;;;;;36.85;26.40;101275.20;108136;1288;21990;-67
2023/09/18 09:32:57;;;;;;;6.10;4.30;;;;;;;36.91;26.54;101269.61;108110;1288;21990;-61
2023/09/18 09:35:23;;;;;;;7.30;4.00;;;;;;;37.04;26.49;101265.59;108153;1288;21995;-60
2023/09/18 09:37:51;;;;;;;4.90;4.20;;;;;;;37.18;26.32;101265.13;108087;1288;22167;-67
2023/09/18 09:40:16;;;;;;;6.50;4.70;;;;;;;37.26;26.24;101264.80;108130;1287;23657;-67
2023/09/18 09:42:42;;;;;;;4.70;4.00;;;;;;;37.38;26.00;101263.86;107800;1285;22000;-61
2023/09/18 09:45:17;;;;;;;8.20;4.60;;;;;;;37.33;25.74;101264.41;107889;1286;22212;-61
2023/09/18 09:47:43;;;;;;;7.40;3.90;;;;;;;37.31;25.99;101267.54;108062;1288;21991;-65
2023/09/18 09:50:10;;;;;;;7.50;3.90;;;;;;;37.43;25.78;101263.96;107855;1288;21988;-65
2023/09/18 09:52:42;;;;;;;5.20;3.50;;;;;;;37.45;25.31;101263.62;108131;1277;21993;-64
2023/09/18 09:55:18;;;;;;;5.70;3.70;;;;;;;37.36;24.99;101265.13;108157;1288;23624;-60
2023/09/18 09:57:47;;;;;;;5.60;3.60;;;;;;;37.12;24.85;101262.16;108116;1280;21995;-64
2023/09/18 10:00:26;;;;;;;4.50;3.40;;;;;;;36.88;25.18;101264.10;108182;1277;22131;-64
2023/09/18 10:02:57;;;;;;;9.00;3.30;;;;;;;36.94;25.44;101264.72;108154;1287;21990;-65
2023/09/18 10:05:28;;;;;;;6.10;3.10;;;;;;;37.02;24.20;101265.29;108101;1288;23612;-60
2023/09/18 10:07:55;;;;;;;4.10;2.90;;;;;;;36.74;23.74;101264.30;108174;1288;21991;-60
2023/09/18 10:10:20;;;;;;;4.40;3.30;;;;;;;36.49;24.44;101263.92;108101;1288;21997;-64
2023/09/18 10:12:46;;;;;;;3.90;3.00;;;;;;;36.49;24.41;101268.23;108169;1286;21991;-64
2023/09/18 10:15:12;;;;;;;4.10;3.10;;;;;;;36.51;24.09;101258.95;107778;1288;21997;-64
2023/09/18 10:17:38;;;;;;;4.50;3.30;;;;;;;36.47;24.16;101251.70;107812;1288;22246;-64
2023/09/18 10:20:20;;;;;;;5.80;3.80;;;;;;;36.50;24.17;101245.89;107856;1288;21999;-66
2023/09/18 10:22:49;;;;;;;5.80;2.90;;;;;;;36.42;23.30;101242.34;108074;1286;21993;-59
2023/09/18 10:25:18;;;;;;;3.50;2.80;;;;;;;36.10;22.98;101248.95;108106;1288;23784;-63
2023/09/18 10:27:52;;;;;;;4.60;2.80;;;;;;;35.85;23.07;101245.70;108222;1288;21992;-61
2023/09/18 10:30:18;;;;;;;7.00;3.00;;;;;;;35.69;23.28;101243.00;108123;1288;21993;-61
2023/09/18 10:32:46;;;;;;;4.60;2.70;;;;;;;35.71;23.71;101242.49;107843;1287;22065;-60
2023/09/18 10:35:15;;;;;;;6.60;2.70;;;;;;;35.91;23.83;101240.42;108149;1287;22005;-61
2023/09/18 10:37:41;;;;;;;4.60;2.30;;;;;;;36.14;23.61;101229.18;108118;1288;22000;-59
2023/09/18 10:40:08;;;;;;;4.40;2.50;;;;;;;36.36;23.43;101229.52;108109;1288;22018;-59
2023/09/18 10:42:40;;;;;;;5.50;3.10;;;;;;;36.71;23.87;101227.19;108122;1280;21995;-59
2023/09/18 10:45:10;;;;;;;4.80;2.80;;;;;;;37.01;23.51;101228.79;108126;1288;22018;-59
2023/09/18 10:47:40;;;;;;;4.60;2.90;;;;;;;37.12;23.30;101229.42;108130;1286;22029;-63
2023/09/18 10:50:09;;;;;;;4.70;2.80;;;;;;;37.27;23.48;101225.52;108144;1286;21991;-64
2023/09/18 10:52:36;;;;;;;2.90;2.30;;;;;;;37.56;23.43;101223.75;107886;1287;21997;-61
2023/09/18 10:55:04;;;;;;;4.60;2.80;;;;;;;37.84;23.41;101221.70;108150;1288;21999;-60
2023/09/18 10:57:37;;;;;;;6.20;2.80;;;;;;;38.09;23.26;101217.11;108138;1280;21993;-65
2023/09/18 11:00:13;;;;;;;3.00;2.30;;;;;;;38.28;22.93;101213.96;108124;1287;21990;-60
2023/09/18 11:02:41;;;;;;;4.70;3.00;;;;;;;38.33;22.53;101209.12;108114;1283;24086;-64
2023/09/18 11:05:07;;;;;;;4.80;3.10;;;;;;;38.23;22.77;101210.50;108115;1287;22000;-61
2023/09/18 11:07:33;;;;;;;4.60;3.20;;;;;;;38.20;22.70;101214.48;108086;1287;22269;-64
2023/09/18 11:09:59;;;;;;;5.20;3.50;;;;;;;38.00;22.18;101210.99;107914;1288;21992;-64